Portland, Oregon
Traffic Map
Current Weather Conditions
Portland, Oregon
Overcast
Overcast
10°
Feels Like: 10°
Wind Chill: 10° Ceiling: 3500
Heat Index: 10° Visibility: 10mi
Dew Point: Wind: 13mph
Humidity: 80% Direction: 180° (S)
Pressure: 30.14in Gusts: 0mph
Raw Report DataKPDX 161553Z 18011KT 10SM FEW010 OVC035 10/07 A3014 RMK AO2 RAE50 SLP205 P0000 T01000067
Traffic Incident Summary
Active as of:
Severity:
Category:
InformationThere was an issue retrieving the traffic information for this location. Please try a different location or try again shortly.
Advertisements
At Last! Intellicast now available for iPhone and Android